Bemidji, Minnesota
Current Conditions -  °F | °C
As of 2:34 PM on Sunday 21 Dec 2014 (Local Time) from KBJI Reporting Station
Haze Haze  
Wind Chill: 23°   Ceiling: 600
Heat Index: 31°   Visibility: 4mi
Dew Point: 30°   Wind: 9mph
Humidity: 96%   Direction: 170°S
Pressure: 29.64"   Gusts: NA
Location:  47.47°N, 94.88°W
Report Text: KBJI 212034Z AUTO 17008KT 4SM BR OVC006 M01/M01 A2964 RMK AO2 T10061012
Loading
Personal Weather Stations






























Interactive Weather Map New forecast layout! Learn more

10-Day Weather Forecast

Advertisements
Track Severe Weather on mobile